createdAt,value
2019-01-18T00:01:21.345Z,11.00
2019-01-18T00:03:49.173Z,12.77
2019-01-18T00:06:16.921Z,10.00
2019-01-18T00:08:44.656Z,9.90
2019-01-18T00:11:12.780Z,10.53
2019-01-18T00:13:40.513Z,9.63
2019-01-18T00:16:08.197Z,10.47
2019-01-18T00:18:35.918Z,10.53
2019-01-18T00:21:03.612Z,9.60
2019-01-18T00:23:31.333Z,9.17
2019-01-18T00:25:59.089Z,10.50
2019-01-18T00:28:26.829Z,11.07
2019-01-18T00:30:54.525Z,11.57
2019-01-18T00:33:22.329Z,10.37
2019-01-18T00:35:50.025Z,10.30
2019-01-18T00:38:17.745Z,10.20
2019-01-18T00:40:45.456Z,10.10
2019-01-18T00:43:13.178Z,10.37
2019-01-18T00:45:40.895Z,9.73
2019-01-18T00:48:08.588Z,9.60
2019-01-18T00:50:36.305Z,9.87
2019-01-18T00:53:04.005Z,9.83
2019-01-18T00:55:31.725Z,10.43
2019-01-18T00:57:59.425Z,16.87
2019-01-18T01:00:27.772Z,23.70
2019-01-18T01:02:55.537Z,24.47
2019-01-18T01:05:23.396Z,23.70
2019-01-18T01:07:51.096Z,22.80
2019-01-18T01:10:18.808Z,22.97
2019-01-18T01:12:46.488Z,24.03
2019-01-18T01:15:15.234Z,23.63
2019-01-18T01:17:43.070Z,24.77
2019-01-18T01:20:11.969Z,25.43
2019-01-18T01:22:39.688Z,24.60
2019-01-18T01:25:07.573Z,24.97
2019-01-18T01:27:35.269Z,24.13
2019-01-18T01:30:04.953Z,25.07
2019-01-18T01:32:32.661Z,23.00
2019-01-18T01:35:00.380Z,20.07
2019-01-18T01:37:28.068Z,19.37
2019-01-18T01:39:55.794Z,19.03
2019-01-18T01:42:23.485Z,18.30
2019-01-18T01:44:51.198Z,19.43
2019-01-18T01:47:18.902Z,18.70
2019-01-18T01:49:46.622Z,17.87
2019-01-18T01:52:14.332Z,17.57
2019-01-18T01:54:42.133Z,16.80
2019-01-18T01:57:09.849Z,16.23
2019-01-18T01:59:37.549Z,17.70
2019-01-18T02:02:05.284Z,17.00
2019-01-18T02:04:32.981Z,17.83
2019-01-18T02:07:00.693Z,17.60
2019-01-18T02:09:28.388Z,17.13
2019-01-18T02:11:56.106Z,16.77
2019-01-18T02:14:23.807Z,16.23
2019-01-18T02:16:51.520Z,17.77
2019-01-18T02:19:19.241Z,18.00
2019-01-18T02:21:46.977Z,17.93
2019-01-18T02:24:14.677Z,17.37
2019-01-18T02:26:42.443Z,15.67
2019-01-18T02:29:10.141Z,14.73
2019-01-18T02:31:37.873Z,17.87
2019-01-18T02:34:05.584Z,16.17
2019-01-18T02:36:33.413Z,13.83
2019-01-18T02:39:01.122Z,12.60
2019-01-18T02:41:28.842Z,13.80
2019-01-18T02:43:56.538Z,10.57
2019-01-18T02:46:24.261Z,13.20
2019-01-18T02:48:51.969Z,11.60
2019-01-18T02:51:19.712Z,11.13
2019-01-18T02:53:47.421Z,11.90
2019-01-18T02:56:15.117Z,11.80
2019-01-18T02:58:42.833Z,12.07
2019-01-18T03:01:10.524Z,12.13
2019-01-18T03:03:38.144Z,11.30
2019-01-18T03:06:05.836Z,12.50
2019-01-18T03:08:33.532Z,12.60
2019-01-18T03:11:01.274Z,11.30
2019-01-18T03:13:28.974Z,10.80
2019-01-18T03:15:56.678Z,11.03
2019-01-18T03:18:24.418Z,11.70
2019-01-18T03:20:52.174Z,10.57
2019-01-18T03:23:19.888Z,9.87
2019-01-18T03:25:47.730Z,10.50
2019-01-18T03:28:15.428Z,8.27
2019-01-18T03:30:43.166Z,8.10
2019-01-18T03:33:10.990Z,8.77
2019-01-18T03:35:38.698Z,8.47
2019-01-18T03:38:06.393Z,8.97
2019-01-18T03:40:34.454Z,7.57
2019-01-18T03:43:02.158Z,8.87
2019-01-18T03:45:29.862Z,9.13
2019-01-18T03:47:57.582Z,8.83
2019-01-18T03:50:26.189Z,7.80
2019-01-18T03:52:53.914Z,8.53
2019-01-18T03:55:21.681Z,7.27
2019-01-18T03:57:49.363Z,8.13
2019-01-18T04:00:26.179Z,8.40
2019-01-18T04:02:54.516Z,9.17
2019-01-18T04:05:22.486Z,8.57
2019-01-18T04:07:50.180Z,7.97
2019-01-18T04:10:18.234Z,7.23
2019-01-18T04:12:45.948Z,6.20
2019-01-18T04:15:15.041Z,7.10
2019-01-18T04:17:42.741Z,7.03
2019-01-18T04:20:11.094Z,7.93
2019-01-18T04:22:38.810Z,5.63
2019-01-18T04:25:08.247Z,6.57
2019-01-18T04:27:36.002Z,6.27
2019-01-18T04:30:04.713Z,7.60
2019-01-18T04:32:32.414Z,7.53
2019-01-18T04:35:00.286Z,8.40
2019-01-18T04:37:27.944Z,7.17
2019-01-18T04:39:55.660Z,7.27
2019-01-18T04:42:23.374Z,7.93
2019-01-18T04:44:51.071Z,7.07
2019-01-18T04:47:18.781Z,8.17
2019-01-18T04:49:46.474Z,6.97
2019-01-18T04:52:14.188Z,6.90
2019-01-18T04:54:41.890Z,7.20
2019-01-18T04:57:09.593Z,6.97
2019-01-18T04:59:37.305Z,6.43
2019-01-18T05:02:04.997Z,6.87
2019-01-18T05:04:32.716Z,6.10
2019-01-18T05:07:00.422Z,6.13
2019-01-18T05:09:28.171Z,5.83
2019-01-18T05:11:55.945Z,6.53
2019-01-18T05:14:23.589Z,6.40
2019-01-18T05:16:51.277Z,6.70
2019-01-18T05:19:18.993Z,6.33
2019-01-18T05:21:46.688Z,6.73
2019-01-18T05:24:14.396Z,6.43
2019-01-18T05:26:42.110Z,5.83
2019-01-18T05:29:09.869Z,6.20
2019-01-18T05:31:37.586Z,7.07
2019-01-18T05:34:05.287Z,8.17
2019-01-18T05:36:32.998Z,6.43
2019-01-18T05:39:00.738Z,7.80
2019-01-18T05:41:28.479Z,6.90
2019-01-18T05:43:56.161Z,6.77
2019-01-18T05:46:23.892Z,5.47
2019-01-18T05:48:51.573Z,5.60
2019-01-18T05:51:19.290Z,5.30
2019-01-18T05:53:47.202Z,5.50
2019-01-18T05:56:14.910Z,5.07
2019-01-18T05:58:42.601Z,5.00
2019-01-18T06:01:11.793Z,5.37
2019-01-18T06:03:39.490Z,4.57
2019-01-18T06:06:07.197Z,5.13
2019-01-18T06:08:34.888Z,6.30
2019-01-18T06:11:02.602Z,7.57
2019-01-18T06:13:30.324Z,7.70
2019-01-18T06:15:58.054Z,6.67
2019-01-18T06:18:25.755Z,8.90
2019-01-18T06:20:53.470Z,6.83
2019-01-18T06:23:21.170Z,7.57
2019-01-18T06:25:48.886Z,6.87
2019-01-18T06:28:16.605Z,7.67
2019-01-18T06:30:44.307Z,7.90
2019-01-18T06:33:12.025Z,7.70
2019-01-18T06:35:39.727Z,7.80
2019-01-18T06:38:07.442Z,7.67
2019-01-18T06:40:35.136Z,7.47
2019-01-18T06:43:02.869Z,10.10
2019-01-18T06:45:31.095Z,7.80
2019-01-18T06:47:58.800Z,8.70
2019-01-18T06:50:26.501Z,7.27
2019-01-18T06:52:54.225Z,7.43
2019-01-18T06:55:21.936Z,7.03
2019-01-18T06:57:49.663Z,7.47
2019-01-18T07:00:28.544Z,6.73
2019-01-18T07:02:56.281Z,6.63
2019-01-18T07:05:23.977Z,7.07
2019-01-18T07:07:51.676Z,8.83
2019-01-18T07:10:20.882Z,10.63
2019-01-18T07:12:48.882Z,7.33
2019-01-18T07:15:16.692Z,9.08
2019-01-18T07:17:44.415Z,7.90
2019-01-18T07:20:13.465Z,8.50
2019-01-18T07:22:41.219Z,9.47
2019-01-18T07:25:12.277Z,8.07
2019-01-18T07:27:40.133Z,8.83
2019-01-18T07:30:14.287Z,8.53
2019-01-18T07:32:42.024Z,7.47
2019-01-18T07:35:09.742Z,8.30
2019-01-18T07:37:37.489Z,9.40
2019-01-18T07:40:06.006Z,8.83
2019-01-18T07:42:33.734Z,8.73
2019-01-18T07:45:01.488Z,8.17
2019-01-18T07:47:29.186Z,9.87
2019-01-18T07:49:56.932Z,9.60
2019-01-18T07:52:24.636Z,9.80
2019-01-18T07:54:52.373Z,10.67
2019-01-18T07:57:20.091Z,9.43
2019-01-18T07:59:48.553Z,10.23
2019-01-18T08:02:16.290Z,9.13
2019-01-18T08:04:44.028Z,11.30
2019-01-18T08:07:11.745Z,9.23
2019-01-18T08:09:39.493Z,8.10
2019-01-18T08:12:07.122Z,8.17
2019-01-18T08:14:35.090Z,15.10
2019-01-18T08:17:02.823Z,9.97
2019-01-18T08:19:30.575Z,10.13
2019-01-18T08:21:58.310Z,8.50
2019-01-18T08:24:26.102Z,9.17
2019-01-18T08:26:53.841Z,8.07
2019-01-18T08:29:21.573Z,8.57
2019-01-18T08:31:49.286Z,9.47
2019-01-18T08:34:17.016Z,9.63
2019-01-18T08:36:44.741Z,13.70
2019-01-18T08:39:12.468Z,11.17
2019-01-18T08:41:40.170Z,10.97
2019-01-18T08:44:07.906Z,10.93
2019-01-18T08:46:36.030Z,10.77
2019-01-18T08:49:03.772Z,10.90
2019-01-18T08:51:31.492Z,11.07
2019-01-18T08:53:59.228Z,10.17
2019-01-18T08:56:26.953Z,11.17
2019-01-18T08:58:54.701Z,9.80
2019-01-18T09:01:22.478Z,10.90
2019-01-18T09:03:50.222Z,11.73
2019-01-18T09:06:17.955Z,11.43
2019-01-18T09:08:45.664Z,12.07
2019-01-18T09:11:13.389Z,11.57
2019-01-18T09:13:41.092Z,12.17
2019-01-18T09:16:08.829Z,12.43
2019-01-18T09:18:36.629Z,10.63
2019-01-18T09:21:04.369Z,9.77
2019-01-18T09:23:32.071Z,11.10
2019-01-18T09:25:59.823Z,9.23
2019-01-18T09:28:27.601Z,9.97
2019-01-18T09:30:55.334Z,11.00
2019-01-18T09:33:23.038Z,11.07
2019-01-18T09:35:50.881Z,11.27
2019-01-18T09:38:18.585Z,9.53
2019-01-18T09:40:46.365Z,10.23
2019-01-18T09:43:14.071Z,11.40
2019-01-18T09:45:41.820Z,9.53
2019-01-18T09:48:10.190Z,10.63
2019-01-18T09:50:37.937Z,9.13
2019-01-18T09:53:07.378Z,9.93
2019-01-18T09:55:35.449Z,10.67
2019-01-18T09:58:03.337Z,11.30
2019-01-18T10:00:32.971Z,12.70
2019-01-18T10:03:01.063Z,14.83
2019-01-18T10:05:29.695Z,15.47
2019-01-18T10:07:57.406Z,15.23
2019-01-18T10:10:25.136Z,12.50
2019-01-18T10:12:52.891Z,12.00
2019-01-18T10:15:41.166Z,9.80
2019-01-18T10:18:08.949Z,10.43
2019-01-18T10:20:36.733Z,9.77
2019-01-18T10:23:04.607Z,8.50
2019-01-18T10:25:32.328Z,10.63
2019-01-18T10:28:00.572Z,9.13
2019-01-18T10:30:28.321Z,10.00
2019-01-18T10:32:56.098Z,12.33
2019-01-18T10:35:23.855Z,10.33
2019-01-18T10:37:51.581Z,10.53
2019-01-18T10:40:19.365Z,11.77
2019-01-18T10:42:47.629Z,10.43
2019-01-18T10:45:15.341Z,9.17
2019-01-18T10:47:43.109Z,12.25
2019-01-18T10:50:15.754Z,10.87
2019-01-18T10:52:43.530Z,13.80
2019-01-18T10:55:11.277Z,13.40
2019-01-18T10:57:39.010Z,10.47
2019-01-18T11:00:12.785Z,9.77
2019-01-18T11:02:40.497Z,9.33
2019-01-18T11:05:08.741Z,13.83
2019-01-18T11:07:36.635Z,9.57
2019-01-18T11:10:05.265Z,8.20
2019-01-18T11:12:32.981Z,7.87
2019-01-18T11:15:00.753Z,6.47
2019-01-18T11:17:28.481Z,7.67
2019-01-18T11:19:56.231Z,8.23
2019-01-18T11:22:23.962Z,9.00
2019-01-18T11:24:51.737Z,8.87
2019-01-18T11:27:19.468Z,7.77
2019-01-18T11:29:47.214Z,8.13
2019-01-18T11:32:14.959Z,8.43
2019-01-18T11:34:42.678Z,9.43
2019-01-18T11:37:10.485Z,9.53
2019-01-18T11:39:38.213Z,9.90
2019-01-18T11:42:06.010Z,11.00
2019-01-18T11:44:33.739Z,11.67
2019-01-18T11:47:01.488Z,12.63
2019-01-18T11:49:29.213Z,11.20
2019-01-18T11:51:57.107Z,10.47
2019-01-18T11:54:24.833Z,11.00
2019-01-18T11:56:52.528Z,9.70
2019-01-18T11:59:20.260Z,13.13
2019-01-18T12:01:47.961Z,8.93
2019-01-18T12:04:15.685Z,8.57
2019-01-18T12:06:43.384Z,9.13
2019-01-18T12:09:18.829Z,9.47
2019-01-18T12:11:46.536Z,10.20
2019-01-18T12:14:14.247Z,9.23
2019-01-18T12:16:41.980Z,9.77
2019-01-18T12:19:09.706Z,8.70
2019-01-18T12:21:37.417Z,9.77
2019-01-18T12:24:06.417Z,10.87
2019-01-18T12:26:34.163Z,9.10
2019-01-18T12:29:01.925Z,11.57
2019-01-18T12:31:29.761Z,12.20
2019-01-18T12:33:57.482Z,11.13
2019-01-18T12:36:25.181Z,11.40
2019-01-18T12:38:53.133Z,10.43
2019-01-18T12:41:20.805Z,10.30
2019-01-18T12:43:48.690Z,10.50
2019-01-18T12:46:16.507Z,8.87
2019-01-18T12:48:44.214Z,9.70
2019-01-18T12:51:11.921Z,9.37
2019-01-18T12:53:39.685Z,8.20
2019-01-18T12:56:07.538Z,8.97
2019-01-18T12:58:35.369Z,7.77
2019-01-18T13:01:03.198Z,7.23
2019-01-18T13:03:30.897Z,7.93
2019-01-18T13:05:58.617Z,8.43
2019-01-18T13:08:26.313Z,9.63
2019-01-18T13:10:54.031Z,9.13
2019-01-18T13:13:21.721Z,6.67
2019-01-18T13:16:28.737Z,7.13
2019-01-18T13:18:59.259Z,6.53
2019-01-18T13:21:26.998Z,6.90
2019-01-18T13:23:54.705Z,7.10
2019-01-18T13:26:22.429Z,7.47
2019-01-18T13:28:50.157Z,8.43
2019-01-18T13:31:17.877Z,9.57
2019-01-18T13:33:45.582Z,7.97
2019-01-18T13:36:15.077Z,8.23
2019-01-18T13:38:42.834Z,7.93
2019-01-18T13:41:10.546Z,8.70
2019-01-18T13:43:38.232Z,8.53
2019-01-18T13:46:06.030Z,7.23
2019-01-18T13:48:33.733Z,7.13
2019-01-18T13:51:01.462Z,7.77
2019-01-18T13:53:29.173Z,7.53
2019-01-18T13:55:56.906Z,8.13
2019-01-18T13:58:24.605Z,7.73
2019-01-18T14:00:52.323Z,6.43
2019-01-18T14:03:20.018Z,7.43
2019-01-18T14:05:47.757Z,7.13
2019-01-18T14:08:15.461Z,6.77
2019-01-18T14:10:43.207Z,7.67
2019-01-18T14:13:10.889Z,7.73
2019-01-18T14:15:38.633Z,6.40
2019-01-18T14:18:06.361Z,6.13
2019-01-18T14:20:34.081Z,6.57
2019-01-18T14:23:01.810Z,6.90
2019-01-18T14:25:29.548Z,7.47
2019-01-18T14:27:57.269Z,7.67
2019-01-18T14:30:25.232Z,6.63
2019-01-18T14:32:55.508Z,7.37
2019-01-18T14:35:22.757Z,6.13
2019-01-18T14:37:50.544Z,7.83
2019-01-18T14:40:18.337Z,8.97
2019-01-18T14:42:46.112Z,6.43
2019-01-18T14:45:16.929Z,6.13
2019-01-18T14:47:44.692Z,6.37
2019-01-18T14:50:15.500Z,9.03
2019-01-18T14:52:43.418Z,6.20
2019-01-18T14:55:11.249Z,7.13
2019-01-18T14:57:39.030Z,5.60
2019-01-18T15:00:11.529Z,7.17
2019-01-18T15:02:39.277Z,6.70
2019-01-18T15:05:08.302Z,6.93
2019-01-18T15:07:36.061Z,6.30
2019-01-18T15:10:05.228Z,6.17
2019-01-18T15:12:33.105Z,6.73
2019-01-18T15:15:00.801Z,6.37
2019-01-18T15:17:34.511Z,6.43
2019-01-18T15:19:58.073Z,6.83
2019-01-18T15:22:25.769Z,5.60
2019-01-18T15:24:53.476Z,6.37
2019-01-18T15:27:21.193Z,9.13
2019-01-18T15:29:48.937Z,9.30
2019-01-18T15:32:16.662Z,6.43
2019-01-18T15:34:44.373Z,6.03
2019-01-18T15:37:12.099Z,7.87
2019-01-18T15:39:39.793Z,10.00
2019-01-18T15:42:07.957Z,8.03
2019-01-18T15:44:35.749Z,6.73
2019-01-18T15:47:03.447Z,15.83
2019-01-18T15:49:31.154Z,12.37
2019-01-18T15:51:58.873Z,10.80
2019-01-18T15:54:26.589Z,12.13
2019-01-18T15:56:54.300Z,18.70
2019-01-18T15:59:22.017Z,13.10
2019-01-18T16:01:49.736Z,6.67
2019-01-18T16:04:17.441Z,9.40
2019-01-18T16:06:45.170Z,12.13
2019-01-18T16:09:12.889Z,9.13
2019-01-18T16:11:41.511Z,8.30
2019-01-18T16:14:09.225Z,7.50
2019-01-18T16:16:44.928Z,8.33
2019-01-18T16:19:12.641Z,8.43
2019-01-18T16:21:40.356Z,7.80
2019-01-18T16:24:08.085Z,7.10
2019-01-18T16:26:35.853Z,8.23
2019-01-18T16:29:03.554Z,6.07
2019-01-18T16:31:31.325Z,5.80
2019-01-18T16:33:59.058Z,6.57
2019-01-18T16:36:26.758Z,7.40
2019-01-18T16:38:54.478Z,7.10
2019-01-18T16:41:22.173Z,6.80
2019-01-18T16:43:49.901Z,5.63
2019-01-18T16:46:17.685Z,5.83
2019-01-18T16:48:45.475Z,5.60
2019-01-18T16:51:13.241Z,5.50
2019-01-18T16:53:40.945Z,5.07
2019-01-18T16:56:08.681Z,7.97
2019-01-18T16:58:37.377Z,11.63
2019-01-18T17:01:06.754Z,6.25
2019-01-18T17:03:34.454Z,5.03
2019-01-18T17:06:02.177Z,4.50
2019-01-18T17:08:30.917Z,5.47
2019-01-18T17:10:58.652Z,5.10
2019-01-18T17:13:28.807Z,4.80
2019-01-18T17:15:56.504Z,5.43
2019-01-18T17:18:24.609Z,4.93
2019-01-18T17:20:52.326Z,4.53
2019-01-18T17:23:20.025Z,4.57
2019-01-18T17:25:47.758Z,5.47
2019-01-18T17:28:15.501Z,4.37
2019-01-18T17:30:43.397Z,4.50
2019-01-18T17:33:11.058Z,4.57
2019-01-18T17:35:41.805Z,12.57
2019-01-18T17:38:31.530Z,7.57
2019-01-18T17:41:15.925Z,5.57
2019-01-18T17:44:14.893Z,6.90
2019-01-18T17:47:17.724Z,6.70
2019-01-18T17:50:41.962Z,10.53
2019-01-18T17:53:37.313Z,11.10
2019-01-18T17:56:48.773Z,7.97
2019-01-18T17:59:45.243Z,5.70
2019-01-18T18:03:00.073Z,7.87
2019-01-18T18:06:01.800Z,11.07
2019-01-18T18:08:59.177Z,8.07
2019-01-18T18:12:07.240Z,9.47
2019-01-18T18:15:01.365Z,11.30
2019-01-18T18:17:47.297Z,9.47
2019-01-18T18:20:55.720Z,11.87
2019-01-18T18:24:14.355Z,7.30
2019-01-18T18:27:44.250Z,5.93
2019-01-18T18:30:45.933Z,7.53
2019-01-18T18:34:13.468Z,34.60
2019-01-18T18:36:57.244Z,16.52
2019-01-18T18:39:57.037Z,9.98
2019-01-18T18:43:06.017Z,7.77
2019-01-18T18:46:14.168Z,7.93
2019-01-18T18:49:32.652Z,9.53
2019-01-18T18:52:38.253Z,10.40
2019-01-18T18:55:47.748Z,9.57
2019-01-18T18:58:27.419Z,12.20
2019-01-18T19:01:24.693Z,13.90
2019-01-18T19:04:21.439Z,19.30
2019-01-18T19:07:21.960Z,20.07
2019-01-18T19:10:43.384Z,19.37
2019-01-18T19:13:33.417Z,22.13
2019-01-18T19:16:54.854Z,29.98
2019-01-18T19:19:59.241Z,26.33
2019-01-18T19:22:45.781Z,24.97
2019-01-18T19:26:09.605Z,31.17
2019-01-18T19:29:16.177Z,39.53
2019-01-18T19:32:07.405Z,27.00
2019-01-18T19:35:06.776Z,25.93
2019-01-18T19:38:15.917Z,23.17
2019-01-18T19:41:16.182Z,22.20
2019-01-18T19:44:09.878Z,26.37
2019-01-18T19:47:10.972Z,20.43
2019-01-18T19:49:58.690Z,30.87
2019-01-18T19:52:51.460Z,23.80
2019-01-18T19:55:57.894Z,22.63
2019-01-18T19:58:50.053Z,20.17
2019-01-18T20:01:51.046Z,17.60
2019-01-18T20:04:54.213Z,18.60
2019-01-18T20:08:00.177Z,16.40
2019-01-18T20:11:22.437Z,10.73
2019-01-18T20:14:31.933Z,11.20
2019-01-18T20:17:40.728Z,13.53
2019-01-18T20:20:49.030Z,15.35
2019-01-18T20:23:57.585Z,13.90
2019-01-18T20:27:12.866Z,16.10
2019-01-18T20:30:14.869Z,12.73
2019-01-18T20:33:19.600Z,13.80
2019-01-18T20:36:25.427Z,13.70
2019-01-18T20:39:45.137Z,14.60
2019-01-18T20:42:36.205Z,12.00
2019-01-18T20:45:33.853Z,13.70
2019-01-18T20:49:01.108Z,13.43
2019-01-18T20:52:01.357Z,12.77
2019-01-18T20:55:37.773Z,10.57
2019-01-18T20:58:40.574Z,11.33
2019-01-18T21:01:49.761Z,18.10
2019-01-18T21:04:49.541Z,13.50
2019-01-18T21:07:54.602Z,13.50
2019-01-18T21:10:35.549Z,12.60
2019-01-18T21:13:37.562Z,14.23
2019-01-18T21:16:48.876Z,15.63
2019-01-18T21:20:19.441Z,15.70
2019-01-18T21:23:36.625Z,22.57
2019-01-18T21:26:31.050Z,27.97
2019-01-18T21:29:27.693Z,27.37
2019-01-18T21:32:20.453Z,27.53
2019-01-18T21:35:28.951Z,28.47
2019-01-18T21:38:44.217Z,28.27
2019-01-18T21:41:21.829Z,28.30
2019-01-18T21:44:28.339Z,27.13
2019-01-18T21:47:48.578Z,31.20
2019-01-18T21:51:03.344Z,33.80
2019-01-18T21:54:12.833Z,30.03
2019-01-18T21:57:16.742Z,27.57
2019-01-18T22:00:16.035Z,26.30
2019-01-18T22:03:17.585Z,23.73
2019-01-18T22:06:10.308Z,22.37
2019-01-18T22:09:25.490Z,20.03
2019-01-18T22:12:42.739Z,19.97
2019-01-18T22:15:36.324Z,18.23
2019-01-18T22:18:39.401Z,18.60
2019-01-18T22:21:35.250Z,19.40
2019-01-18T22:24:27.773Z,19.00
2019-01-18T22:27:23.173Z,17.70
2019-01-18T22:30:30.117Z,21.37
2019-01-18T22:33:39.699Z,17.00
2019-01-18T22:36:37.638Z,17.40
2019-01-18T22:39:26.842Z,16.33
2019-01-18T22:42:43.533Z,18.27
2019-01-18T22:45:43.713Z,17.73
2019-01-18T22:48:34.733Z,19.77
2019-01-18T22:51:53.018Z,23.40
2019-01-18T22:54:49.816Z,21.03
2019-01-18T22:58:23.546Z,22.10
2019-01-18T23:01:35.638Z,21.83
2019-01-18T23:04:46.929Z,20.97
2019-01-18T23:07:58.248Z,20.77
2019-01-18T23:10:52.626Z,18.70
2019-01-18T23:14:23.521Z,18.20
2019-01-18T23:17:57.377Z,17.20
2019-01-18T23:21:00.606Z,17.07
2019-01-18T23:24:05.436Z,15.83
2019-01-18T23:27:05.091Z,19.20
2019-01-18T23:29:50.809Z,20.13
2019-01-18T23:33:09.217Z,20.90
2019-01-18T23:36:10.829Z,26.77
2019-01-18T23:39:41.461Z,30.77
2019-01-18T23:42:31.604Z,29.20
2019-01-18T23:45:21.922Z,31.13
2019-01-18T23:48:18.457Z,31.50
2019-01-18T23:51:11.297Z,29.57
2019-01-18T23:53:57.037Z,27.57
2019-01-18T23:56:35.636Z,27.80
2019-01-18T23:59:29.614Z,32.60
